x

Bw Pioneer Buoy - Walker Ridge 249 (42360) Wave Buoy

1:00pm - Mon 20th Feb 2017 All times are UTC.

  • Sig Wave height 4.6ft
  • Peak Period 5s
  • Wind
    22mph, 25mph gusts
  • Sea Temp 74°f
  • Sea Pressure 1015.3mb

More Historic Weather Station data

Upgrade to MSW Pro to gain access to the past 30 days of data for over 8000 Wavebouys and Weather Stations around the globe.

Join Pro

Comparision Forecast

View Surf forecast
   
Mon 02/20 1:00pm 4.5ft 5s 22 25 mph 1015.3mb 74f -
12:00pm 4.5ft 6s 18 20 mph 1015.5mb 74f -
11:00am 4.5ft 5s 20 22 mph 1015mb 74f -
10:00am 4ft 5s 22 25 mph 1014.5mb 74f -
9:00am 3.5ft 5s 18 20 mph 1015.5mb 74f -
8:00am 3.5ft 6s 20 22 mph 1015.3mb 74f -
7:00am 3.5ft 5s 18 20 mph 1016.3mb 74f -
6:00am 3.5ft 5s 18 20 mph 1017mb 74f -
5:00am 3ft 5s 16 18 mph 1017.2mb 74f -
4:00am 3.5ft 5s 16 18 mph 1016.8mb 74f -
3:00am 3.5ft 5s 13 16 mph 1016.5mb 74f -
2:00am 2.5ft 5s 18 20 mph 1015.5mb 74f -
1:00am 3ft 5s 13 16 mph 1015.3mb 74f -
12:00am 3ft 5s 13 16 mph 1015.3mb 74f -
Sun 02/19 11:00pm 2.5ft 6s 13
mph
1015.5mb 75f -
10:00pm 3ft 5s 13
mph
1015mb 75f -
9:00pm 3ft 6s 13 16 mph 1015mb 75f -
8:00pm 3ft 6s 13
mph
1015.8mb 75f -
7:00pm 3ft 6s 13 16 mph 1015.8mb 74f -
6:00pm 3ft 6s 16
mph
1016.3mb 74f -
5:00pm 2.5ft 5s 13 16 mph 1016.8mb 74f -
4:00pm 3ft 6s 13
mph
1017mb 74f -
3:00pm 3ft 6s 13
mph
1016.3mb 74f -
2:00pm 3ft 5s 13
mph
1015.8mb 74f 58f
1:00pm 3ft 6s 13
mph
1015mb 74f 58f
12:00pm 2.5ft 6s 13
mph
1014.5mb 74f 58f
11:00am 3ft 6s 11 13 mph 1013.8mb 74f 58f
10:00am 2.5ft 6s 11 13 mph 1013.6mb - 58f
9:00am 3ft 6s 11 13 mph 1013.8mb 74f 58f
8:00am 3.5ft 6s 11
mph
1013.8mb 74f 58f
7:00am 3.5ft 6s 9 11 mph 1013.8mb 74f 58f
6:00am 3.5ft 6s 9 11 mph 1014.1mb 74f 58f
5:00am 3.5ft 6s 11 13 mph 1013.8mb 74f 58f
4:00am 3.5ft 6s 9
mph
1014.5mb 74f 58f
3:00am 3.5ft 6s 7
mph
1014.3mb 74f 58f
2:00am 3.5ft 6s 4 7 mph 1013.8mb 74f 58f
1:00am 4ft 6s 7
mph
1012.8mb 74f 58f
12:00am 3.5ft 6s 9
mph
1012.4mb 74f 58f
Sat 02/18 11:00pm 4ft 6s 9 11 mph 1012.1mb 74f 58f
10:00pm 3.5ft 6s 9
mph
1012.1mb 74f -
9:00pm 3.5ft 5s 13 18 mph 1011.9mb 74f 73f
8:00pm 4ft 6s 16
mph
1012.1mb 74f 72f
7:00pm 3.5ft 6s 13 16 mph 1013.1mb 74f 72f
6:00pm 3.5ft 6s 13 16 mph 1013.8mb 74f 72f
5:00pm 3.5ft 6s 9 11 mph 1014.5mb 74f 72f
4:00pm 3.5ft 5s 9
mph
1014.3mb 74f 72f
3:00pm 4.5ft 5s 11 13 mph 1014.1mb 74f 71f
2:00pm 3.5ft 5s 4 7 mph 1013.3mb 74f 70f
1:00pm 3.5ft 5s 4
mph
1012.6mb 74f 69f
12:00pm 3.5ft 5s 2 4 mph 1012.1mb 74f 68f
11:00am 3.5ft 5s 4 7 mph 1011.6mb 74f 68f
10:00am 3ft 6s 13 16 mph 1011.4mb 73f 67f
9:00am 3.5ft 5s 9 11 mph 1011.1mb 74f 66f
8:00am 4.5ft 6s 7 11 mph 1012.1mb 74f 65f
7:00am 5ft 5s 13 16 mph 1011.9mb 74f 65f
6:00am 5ft 6s 20 29 mph 1014.1mb 74f 67f
5:00am 6ft 6s 18 20 mph 1012.6mb 74f 72f
4:00am 5.5ft 6s 25 27 mph 1012.1mb 74f 72f
3:00am 5ft 5s 25 27 mph 1012.1mb 74f 71f
2:00am 5ft 6s 20 22 mph 1012.4mb 74f 71f
1:00am 4ft 5s 18 20 mph 1013.1mb 74f 70f
12:00am 3.5ft 4s 18 20 mph 1012.4mb 74f 70f
Fri 02/17 11:00pm 2.5ft 3s 27 31 mph 1012.4mb 74f 70f
10:00pm 2.5ft 4s 9 13 mph 1013.6mb 74f 68f
9:00pm 2.5ft 3s 13 18 mph 1014.1mb 74f 70f
8:00pm 2ft 3s 18 20 mph 1014.8mb 74f 70f
7:00pm 1.6ft 3s 18 20 mph 1015.5mb 74f 70f
6:00pm 1.3ft 3s 13 18 mph 1017mb 74f 70f
5:00pm 1.3ft 3s 9 11 mph 1018.7mb 74f 69f
4:00pm 1.3ft 3s 7 9 mph 1019.2mb 74f 69f
3:00pm 1.3ft 5s 11 13 mph 1018.7mb 74f 68f
2:00pm 1.3ft 4s 13 16 mph 1017.5mb 74f 68f
1:00pm 1.3ft 4s 11 13 mph 1017.2mb 74f 67f
12:00pm 1.3ft 5s 7 9 mph 1017.2mb 74f 66f
11:00am 1.3ft 5s 4 7 mph 1017.2mb 74f 66f
10:00am 1.6ft 5s 4 7 mph 1016.8mb 74f 66f
9:00am 1.6ft 5s 4 7 mph 1017.2mb 74f 66f
8:00am 1.6ft 5s 7 9 mph 1018mb 74f 65f
7:00am 2ft 5s 9 13 mph 1018mb 74f 65f
6:00am 2ft 5s 9 11 mph 1018.2mb 74f 65f
5:00am 2.5ft 5s 7 11 mph 1019mb 74f 65f
4:00am 2.5ft 5s 9 11 mph 1019mb 74f 65f
3:00am 2.5ft 5s 7 9 mph 1019.2mb 74f 65f
2:00am 2.5ft 6s 7
mph
1019.2mb 74f 64f
1:00am 3ft 6s 4 7 mph 1019mb 74f 64f
12:00am 3ft 6s 7 9 mph 1018.7mb 74f 64f
Thu 02/16 11:00pm 3ft 6s 7 9 mph 1018.7mb 74f 64f
10:00pm 3.5ft 6s 4 7 mph 1018.5mb 74f 65f
9:00pm 3.5ft 5s 7 9 mph 1018.5mb 74f 64f
8:00pm 4ft 7s 7 11 mph 1018.7mb 74f 64f
7:00pm 4.5ft 6s 7
mph
1019.2mb 74f 64f
6:00pm 4.5ft 7s 9 11 mph 1020.2mb 74f 64f
5:00pm 4.5ft 7s 7 9 mph 1020.6mb 74f 64f
4:00pm 4.5ft 7s 11 13 mph 1021.4mb 74f 63f
3:00pm 4.5ft 7s 13 18 mph 1020.9mb 74f 63f